Wakefield, Canada
Current Conditions -  °F | °C
As of 7:00 AM on Tuesday 27 Jan 2015 (Local Time) from CYND Reporting Station
Broken Clouds Broken Clouds  
Wind Chill: -11°   Ceiling: 22000
Heat Index:   Visibility: 15mi
Dew Point: -9°   Wind: 9mph
Humidity: 56%   Direction: 360°N
Pressure: 30.11"   Gusts: NA
Location:  45.63°N, 75.93°W
Report Text: CYND 271200Z 36008KT 15SM BKN220 M16/M23 A3011 RMK CI7 SLP203
Loading
Personal Weather Stations






























Interactive Weather Map New forecast layout! Learn more

10-Day Weather Forecast

Advertisements
Track Severe Weather on mobile